createdAt,value
2023-02-06T00:00:47.864Z,98.90
2023-02-06T00:03:15.502Z,98.40
2023-02-06T00:05:43.347Z,98.70
2023-02-06T00:08:10.946Z,98.60
2023-02-06T00:10:39.375Z,98.50
2023-02-06T00:13:06.884Z,98.50
2023-02-06T00:15:35.068Z,98.50
2023-02-06T00:18:02.845Z,98.40
2023-02-06T00:20:30.420Z,98.60
2023-02-06T00:22:57.933Z,98.40
2023-02-06T00:25:25.531Z,98.60
2023-02-06T00:27:53.056Z,98.90
2023-02-06T00:30:20.656Z,98.90
2023-02-06T00:32:48.364Z,98.60
2023-02-06T00:35:16.264Z,98.50
2023-02-06T00:37:44.301Z,98.60
2023-02-06T00:40:13.387Z,98.70
2023-02-06T00:42:41.260Z,98.50
2023-02-06T00:45:09.324Z,98.80
2023-02-06T00:47:37.071Z,98.90
2023-02-06T00:50:05.267Z,98.80
2023-02-06T00:52:33.669Z,98.70
2023-02-06T00:55:01.710Z,98.80
2023-02-06T00:57:30.611Z,98.90
2023-02-06T00:59:58.203Z,99.00
2023-02-06T01:02:26.123Z,98.90
2023-02-06T01:04:54.486Z,98.90
2023-02-06T01:07:22.728Z,99.00
2023-02-06T01:09:50.424Z,98.70
2023-02-06T01:12:18.261Z,98.60
2023-02-06T01:14:45.755Z,98.70
2023-02-06T01:17:17.471Z,98.60
2023-02-06T01:19:45.053Z,98.60
2023-02-06T01:22:12.675Z,98.70
2023-02-06T01:24:40.460Z,98.60
2023-02-06T01:27:08.308Z,98.60
2023-02-06T01:29:36.207Z,98.70
2023-02-06T01:32:04.727Z,98.90
2023-02-06T01:34:32.396Z,98.80
2023-02-06T01:37:01.617Z,98.70
2023-02-06T01:39:29.194Z,98.60
2023-02-06T01:41:59.769Z,98.80
2023-02-06T01:44:27.844Z,99.00
2023-02-06T01:46:57.205Z,99.10
2023-02-06T01:49:31.951Z,99.10
2023-02-06T01:52:18.960Z,98.80
2023-02-06T01:54:48.505Z,98.80
2023-02-06T01:57:19.024Z,98.90
2023-02-06T01:59:50.061Z,99.00
2023-02-06T02:02:20.436Z,99.30
2023-02-06T02:04:49.083Z,99.10
2023-02-06T02:07:20.004Z,99.20
2023-02-06T02:09:48.886Z,99.10
2023-02-06T02:12:17.663Z,99.10
2023-02-06T02:14:46.325Z,99.00
2023-02-06T02:17:21.220Z,99.00
2023-02-06T02:20:07.379Z,99.20
2023-02-06T02:22:47.354Z,99.30
2023-02-06T02:28:31.575Z,98.90
2023-02-06T02:31:29.343Z,98.70
2023-02-06T02:34:16.228Z,98.60
2023-02-06T02:37:00.161Z,98.50
2023-02-06T02:40:06.181Z,98.30
2023-02-06T02:42:41.519Z,98.20
2023-02-06T02:45:09.076Z,97.90
2023-02-06T02:47:42.684Z,97.80
2023-02-06T02:50:11.399Z,97.80
2023-02-06T02:52:38.998Z,97.70
2023-02-06T02:55:22.579Z,97.70
2023-02-06T02:57:56.974Z,97.50
2023-02-06T03:02:56.122Z,97.30
2023-02-06T03:05:25.924Z,97.20
2023-02-06T03:08:14.814Z,97.00
2023-02-06T03:11:02.405Z,97.00
2023-02-06T03:13:36.550Z,96.90
2023-02-06T03:16:23.865Z,96.80
2023-02-06T03:18:55.347Z,96.80
2023-02-06T03:21:24.266Z,97.00
2023-02-06T03:23:56.474Z,96.60
2023-02-06T03:26:27.875Z,96.40
2023-02-06T03:28:58.748Z,96.30
2023-02-06T03:31:34.271Z,96.00
2023-02-06T03:34:06.044Z,95.90
2023-02-06T03:36:33.850Z,95.70
2023-02-06T03:39:01.555Z,95.60
2023-02-06T03:41:32.602Z,95.50
2023-02-06T03:44:00.751Z,95.60
2023-02-06T03:46:29.238Z,95.60
2023-02-06T03:48:58.999Z,95.40
2023-02-06T03:51:29.478Z,95.20
2023-02-06T03:54:15.634Z,94.90
2023-02-06T03:56:54.986Z,94.70
2023-02-06T03:59:23.730Z,94.70
2023-02-06T04:01:54.966Z,94.70
2023-02-06T04:04:36.651Z,94.50
2023-02-06T04:07:08.632Z,94.60
2023-02-06T04:09:37.201Z,93.60
2023-02-06T04:12:09.216Z,93.50
2023-02-06T04:14:39.747Z,93.40
2023-02-06T04:17:08.681Z,93.40
2023-02-06T04:19:39.459Z,93.60
2023-02-06T04:22:09.103Z,93.60
2023-02-06T04:24:46.347Z,93.40
2023-02-06T04:27:16.554Z,93.20
2023-02-06T04:29:44.953Z,92.60
2023-02-06T04:32:25.040Z,92.50
2023-02-06T04:34:52.998Z,93.00
2023-02-06T04:37:20.509Z,92.80
2023-02-06T04:39:48.134Z,92.50
2023-02-06T04:42:15.796Z,92.70
2023-02-06T04:44:43.452Z,92.40
2023-02-06T04:47:11.104Z,91.10
2023-02-06T04:49:38.662Z,91.60
2023-02-06T04:52:07.096Z,91.50
2023-02-06T04:54:34.813Z,91.30
2023-02-06T04:57:04.949Z,91.70
2023-02-06T04:59:34.040Z,91.80
2023-02-06T05:02:02.236Z,91.50
2023-02-06T05:04:30.514Z,91.40
2023-02-06T05:06:58.102Z,91.80
2023-02-06T05:09:26.034Z,91.50
2023-02-06T05:11:57.202Z,90.90
2023-02-06T05:14:24.893Z,90.90
2023-02-06T05:16:52.928Z,90.80
2023-02-06T05:19:20.433Z,91.30
2023-02-06T05:21:48.090Z,90.40
2023-02-06T05:24:15.617Z,90.10
2023-02-06T05:26:44.315Z,90.40
2023-02-06T05:29:11.800Z,90.30
2023-02-06T05:31:45.274Z,90.10
2023-02-06T05:34:12.928Z,90.30
2023-02-06T05:36:40.735Z,90.10
2023-02-06T05:39:08.296Z,90.10
2023-02-06T05:41:37.386Z,90.20
2023-02-06T05:44:05.018Z,90.20
2023-02-06T05:46:33.331Z,90.00
2023-02-06T05:49:01.518Z,89.90
2023-02-06T05:51:29.208Z,89.60
2023-02-06T05:53:57.017Z,90.00
2023-02-06T05:56:24.760Z,90.40
2023-02-06T05:58:53.089Z,90.30
2023-02-06T06:01:21.643Z,89.20
2023-02-06T06:03:49.523Z,90.20
2023-02-06T06:06:17.100Z,88.90
2023-02-06T06:08:44.980Z,88.80
2023-02-06T06:11:15.789Z,87.70
2023-02-06T06:13:43.272Z,87.20
2023-02-06T06:16:11.681Z,89.00
2023-02-06T06:18:40.369Z,86.90
2023-02-06T06:21:08.834Z,86.60
2023-02-06T06:23:36.396Z,86.50
2023-02-06T06:26:04.145Z,86.40
2023-02-06T06:28:35.411Z,86.70
2023-02-06T06:31:05.762Z,86.50
2023-02-06T06:33:33.829Z,85.90
2023-02-06T06:36:01.524Z,84.40
2023-02-06T06:38:29.232Z,83.50
2023-02-06T06:40:57.640Z,81.00
2023-02-06T06:43:25.189Z,80.80
2023-02-06T06:45:52.735Z,85.70
2023-02-06T06:48:21.538Z,85.60
2023-02-06T06:50:52.895Z,85.30
2023-02-06T06:53:20.543Z,83.80
2023-02-06T06:56:00.140Z,83.80
2023-02-06T07:01:21.694Z,83.00
2023-02-06T07:03:52.559Z,82.60
2023-02-06T07:06:20.554Z,84.00
2023-02-06T07:08:49.770Z,80.20
2023-02-06T07:11:18.760Z,80.20
2023-02-06T07:13:49.228Z,79.40
2023-02-06T07:16:16.923Z,81.20
2023-02-06T07:18:45.487Z,81.00
2023-02-06T07:21:17.163Z,81.70
2023-02-06T07:23:47.893Z,82.40
2023-02-06T07:26:16.787Z,83.30
2023-02-06T07:28:45.298Z,80.70
2023-02-06T07:31:14.071Z,81.30
2023-02-06T07:33:49.586Z,80.90
2023-02-06T07:36:25.756Z,80.60
2023-02-06T07:38:58.966Z,80.50
2023-02-06T07:41:29.682Z,80.50
2023-02-06T07:43:58.784Z,79.60
2023-02-06T07:46:31.041Z,78.80
2023-02-06T07:48:58.668Z,80.30
2023-02-06T07:51:28.586Z,79.30
2023-02-06T07:53:57.055Z,78.30
2023-02-06T07:56:25.654Z,78.40
2023-02-06T07:58:53.970Z,76.60
2023-02-06T08:01:23.192Z,77.00
2023-02-06T08:03:52.224Z,78.30
2023-02-06T08:06:22.168Z,77.40
2023-02-06T08:08:51.359Z,77.10
2023-02-06T08:11:20.013Z,80.60
2023-02-06T08:13:48.231Z,78.50
2023-02-06T08:16:20.247Z,76.40
2023-02-06T08:18:51.115Z,77.00
2023-02-06T08:21:22.500Z,77.20
2023-02-06T08:23:57.410Z,77.30
2023-02-06T08:26:26.107Z,81.40
2023-02-06T08:28:58.417Z,76.30
2023-02-06T08:31:31.351Z,76.60
2023-02-06T08:33:59.089Z,77.80
2023-02-06T08:36:27.332Z,77.60
2023-02-06T08:38:57.583Z,75.70
2023-02-06T08:41:27.280Z,76.50
2023-02-06T08:43:56.333Z,76.70
2023-02-06T08:46:27.325Z,76.20
2023-02-06T08:48:56.752Z,76.30
2023-02-06T08:51:28.167Z,76.00
2023-02-06T08:53:59.506Z,74.60
2023-02-06T08:56:28.633Z,75.30
2023-02-06T08:58:58.008Z,75.90
2023-02-06T09:01:26.395Z,74.00
2023-02-06T09:03:58.743Z,74.50
2023-02-06T09:06:27.153Z,71.50
2023-02-06T09:08:58.624Z,72.80
2023-02-06T09:11:26.835Z,73.70
2023-02-06T09:13:55.915Z,75.00
2023-02-06T09:16:24.198Z,75.40
2023-02-06T09:18:54.442Z,76.90
2023-02-06T09:21:28.473Z,75.80
2023-02-06T09:24:00.420Z,75.60
2023-02-06T09:26:38.883Z,75.50
2023-02-06T09:29:10.786Z,74.60
2023-02-06T09:31:40.088Z,78.30
2023-02-06T09:34:08.174Z,75.20
2023-02-06T09:36:37.057Z,75.30
2023-02-06T09:39:06.382Z,75.40
2023-02-06T09:41:40.900Z,75.70
2023-02-06T09:44:13.804Z,75.30
2023-02-06T09:46:50.195Z,75.00
2023-02-06T09:49:22.705Z,75.00
2023-02-06T09:52:03.137Z,75.30
2023-02-06T09:54:34.689Z,74.50
2023-02-06T09:57:21.362Z,75.60
2023-02-06T09:59:52.154Z,75.20
2023-02-06T10:02:40.176Z,75.50
2023-02-06T10:05:16.835Z,75.30
2023-02-06T10:08:01.697Z,74.70
2023-02-06T10:10:39.819Z,75.50
2023-02-06T10:13:14.199Z,75.70
2023-02-06T10:15:45.624Z,75.70
2023-02-06T10:18:20.567Z,75.70
2023-02-06T10:20:52.743Z,75.60
2023-02-06T10:23:30.123Z,75.60
2023-02-06T10:26:13.687Z,75.60
2023-02-06T10:28:41.332Z,76.20
2023-02-06T10:31:16.513Z,75.90
2023-02-06T10:34:03.931Z,76.10
2023-02-06T10:36:40.594Z,75.30
2023-02-06T10:39:26.581Z,76.10
2023-02-06T10:42:12.878Z,76.00
2023-02-06T10:44:52.895Z,76.30
2023-02-06T10:47:21.507Z,76.70
2023-02-06T10:49:52.937Z,76.90
2023-02-06T10:52:29.043Z,76.70
2023-02-06T10:55:01.133Z,76.70
2023-02-06T10:57:28.845Z,77.40
2023-02-06T11:00:01.076Z,77.70
2023-02-06T11:02:39.494Z,77.90
2023-02-06T11:05:20.241Z,77.70
2023-02-06T11:07:52.614Z,78.10
2023-02-06T11:10:21.715Z,78.30
2023-02-06T11:13:09.304Z,78.60
2023-02-06T11:15:40.299Z,78.80
2023-02-06T11:18:11.707Z,78.80
2023-02-06T11:20:42.522Z,79.10
2023-02-06T11:23:24.606Z,79.30
2023-02-06T11:26:14.525Z,79.40
2023-02-06T11:28:50.757Z,79.50
2023-02-06T11:31:34.611Z,79.90
2023-02-06T11:34:02.233Z,79.90
2023-02-06T11:36:32.272Z,79.40
2023-02-06T11:39:01.932Z,79.90
2023-02-06T11:41:30.356Z,79.60
2023-02-06T11:44:06.732Z,80.20
2023-02-06T11:46:39.028Z,80.50
2023-02-06T11:49:27.483Z,80.70
2023-02-06T11:52:01.360Z,80.90
2023-02-06T11:54:35.711Z,81.20
2023-02-06T11:57:18.907Z,81.30
2023-02-06T11:59:53.021Z,81.40
2023-02-06T12:02:28.230Z,81.60
2023-02-06T12:05:02.083Z,81.70
2023-02-06T12:07:34.798Z,81.90
2023-02-06T12:10:06.861Z,81.90
2023-02-06T12:12:37.020Z,82.00
2023-02-06T12:15:45.848Z,82.00
2023-02-06T12:18:17.304Z,82.10
2023-02-06T12:20:50.512Z,82.20
2023-02-06T12:23:34.199Z,82.10
2023-02-06T12:26:03.077Z,82.40
2023-02-06T12:28:30.544Z,82.40
2023-02-06T12:31:09.570Z,82.70
2023-02-06T12:33:39.800Z,82.80
2023-02-06T12:36:12.372Z,82.80
2023-02-06T12:38:52.066Z,83.00
2023-02-06T12:41:25.641Z,83.10
2023-02-06T12:44:02.061Z,83.10
2023-02-06T12:46:30.208Z,83.20
2023-02-06T12:48:58.460Z,83.30
2023-02-06T12:51:32.915Z,83.40
2023-02-06T12:54:02.719Z,83.60
2023-02-06T12:56:40.681Z,83.70
2023-02-06T12:59:11.204Z,83.70
2023-02-06T13:01:45.027Z,83.80
2023-02-06T13:04:24.580Z,84.10
2023-02-06T13:07:10.031Z,84.00
2023-02-06T13:09:41.789Z,84.30
2023-02-06T13:15:05.160Z,84.50
2023-02-06T13:17:34.913Z,84.60
2023-02-06T13:20:05.587Z,84.90
2023-02-06T13:22:41.528Z,84.90
2023-02-06T13:25:30.899Z,85.00
2023-02-06T13:28:02.570Z,85.00
2023-02-06T13:30:30.379Z,85.10
2023-02-06T13:33:18.455Z,85.20
2023-02-06T13:36:04.910Z,85.30
2023-02-06T13:38:35.404Z,85.40
2023-02-06T13:41:23.076Z,85.40
2023-02-06T13:44:12.243Z,85.60
2023-02-06T13:46:42.816Z,85.60
2023-02-06T13:49:28.838Z,85.70
2023-02-06T13:52:13.254Z,85.80
2023-02-06T13:55:00.237Z,85.90
2023-02-06T13:57:37.036Z,86.00
2023-02-06T14:00:11.653Z,86.00
2023-02-06T14:02:40.605Z,86.10
2023-02-06T14:05:12.477Z,86.20
2023-02-06T14:07:49.349Z,86.20
2023-02-06T14:10:50.649Z,86.30
2023-02-06T14:13:24.608Z,86.30
2023-02-06T14:16:04.964Z,86.40
2023-02-06T14:18:39.993Z,86.50
2023-02-06T14:21:14.536Z,86.70
2023-02-06T14:24:00.839Z,86.70
2023-02-06T14:26:46.493Z,86.80
2023-02-06T14:29:20.162Z,86.90
2023-02-06T14:31:51.676Z,87.10
2023-02-06T14:34:21.982Z,87.10
2023-02-06T14:36:58.255Z,87.30
2023-02-06T14:39:44.858Z,87.30
2023-02-06T14:42:18.794Z,87.50
2023-02-06T14:44:50.776Z,87.50
2023-02-06T14:47:24.457Z,87.60
2023-02-06T14:49:53.557Z,87.70
2023-02-06T14:52:26.865Z,87.80
2023-02-06T14:54:54.808Z,87.80
2023-02-06T14:57:28.700Z,88.00
2023-02-06T14:59:59.045Z,88.00
2023-02-06T15:02:28.555Z,88.20
2023-02-06T15:04:56.414Z,88.20
2023-02-06T15:07:38.213Z,88.30
2023-02-06T15:10:11.516Z,88.50
2023-02-06T15:12:39.205Z,88.50
2023-02-06T15:15:36.245Z,88.80
2023-02-06T15:18:06.017Z,88.80
2023-02-06T15:20:44.971Z,89.00
2023-02-06T15:23:30.069Z,88.90
2023-02-06T15:26:16.331Z,89.20
2023-02-06T15:28:44.494Z,89.30
2023-02-06T15:31:19.426Z,89.50
2023-02-06T15:33:53.107Z,89.30
2023-02-06T15:36:26.054Z,89.60
2023-02-06T15:38:53.766Z,89.50
2023-02-06T15:41:21.334Z,89.50
2023-02-06T15:43:50.728Z,89.50
2023-02-06T15:46:19.334Z,89.50
2023-02-06T15:48:55.035Z,89.60
2023-02-06T15:51:23.530Z,89.80
2023-02-06T15:53:52.184Z,89.90
2023-02-06T15:56:26.192Z,89.80
2023-02-06T15:59:01.645Z,89.90
2023-02-06T16:01:34.946Z,90.00
2023-02-06T16:04:08.703Z,90.00
2023-02-06T16:06:36.500Z,90.00
2023-02-06T16:09:07.466Z,90.00
2023-02-06T16:11:50.952Z,90.00
2023-02-06T16:14:21.651Z,90.20
2023-02-06T16:17:02.871Z,90.10
2023-02-06T16:19:38.973Z,90.20
2023-02-06T16:22:14.540Z,90.20
2023-02-06T16:24:42.094Z,90.20
2023-02-06T16:27:17.272Z,90.20
2023-02-06T16:29:46.953Z,90.30
2023-02-06T16:32:19.380Z,90.30
2023-02-06T16:34:47.190Z,90.40
2023-02-06T16:37:19.487Z,90.40
2023-02-06T16:39:48.209Z,90.50
2023-02-06T16:42:35.408Z,90.50
2023-02-06T16:45:07.713Z,90.40
2023-02-06T16:47:36.274Z,90.40
2023-02-06T16:50:04.964Z,90.50
2023-02-06T16:52:33.630Z,90.50
2023-02-06T16:55:02.567Z,90.60
2023-02-06T16:57:36.592Z,90.70
2023-02-06T17:00:24.419Z,90.70
2023-02-06T17:02:52.457Z,90.70
2023-02-06T17:05:21.175Z,90.70
2023-02-06T17:07:53.576Z,90.70
2023-02-06T17:10:23.711Z,90.70
2023-02-06T17:12:52.579Z,90.80
2023-02-06T17:15:20.480Z,90.80
2023-02-06T17:17:48.015Z,90.90
2023-02-06T17:20:30.729Z,90.80
2023-02-06T17:22:58.390Z,90.90
2023-02-06T17:25:27.195Z,90.90
2023-02-06T17:27:55.854Z,91.00
2023-02-06T17:30:25.285Z,91.00
2023-02-06T17:32:53.028Z,91.00
2023-02-06T17:35:20.711Z,91.00
2023-02-06T17:37:49.424Z,91.00
2023-02-06T17:40:19.747Z,90.90
2023-02-06T17:42:47.893Z,90.80
2023-02-06T17:45:16.319Z,91.10
2023-02-06T17:47:43.949Z,91.00
2023-02-06T17:50:13.837Z,91.00
2023-02-06T17:52:41.878Z,91.00
2023-02-06T17:55:09.708Z,91.40
2023-02-06T17:57:40.673Z,91.00
2023-02-06T18:00:10.175Z,91.10
2023-02-06T18:02:38.175Z,91.10
2023-02-06T18:05:05.993Z,91.10
2023-02-06T18:07:33.508Z,91.20
2023-02-06T18:10:01.031Z,91.40
2023-02-06T18:12:31.452Z,91.20
2023-02-06T18:14:59.219Z,91.30
2023-02-06T18:17:26.743Z,91.40
2023-02-06T18:19:55.078Z,91.30
2023-02-06T18:22:22.940Z,91.40
2023-02-06T18:24:51.080Z,91.40
2023-02-06T18:27:19.338Z,91.40
2023-02-06T18:29:50.030Z,91.50
2023-02-06T18:32:18.794Z,91.70
2023-02-06T18:34:47.589Z,91.60
2023-02-06T18:37:15.287Z,91.70
2023-02-06T18:39:44.148Z,91.70
2023-02-06T18:42:30.981Z,91.80
2023-02-06T18:44:58.529Z,91.90
2023-02-06T18:47:26.916Z,91.80
2023-02-06T18:49:54.469Z,92.20
2023-02-06T18:52:23.251Z,91.90
2023-02-06T18:54:51.598Z,91.80
2023-02-06T18:57:19.109Z,91.70
2023-02-06T18:59:46.942Z,91.70
2023-02-06T19:02:14.638Z,91.80
2023-02-06T19:04:42.291Z,92.00
2023-02-06T19:07:11.858Z,92.10
2023-02-06T19:09:39.552Z,91.90
2023-02-06T19:12:07.301Z,91.90
2023-02-06T19:14:34.839Z,92.00
2023-02-06T19:17:02.449Z,91.90
2023-02-06T19:19:30.793Z,91.80
2023-02-06T19:21:59.351Z,92.00
2023-02-06T19:24:28.538Z,92.00
2023-02-06T19:26:57.320Z,92.00
2023-02-06T19:29:35.228Z,92.10
2023-02-06T19:32:05.262Z,92.10
2023-02-06T19:34:36.967Z,92.10
2023-02-06T19:37:06.018Z,92.10
2023-02-06T19:39:34.952Z,92.10
2023-02-06T19:42:04.560Z,92.20
2023-02-06T19:44:34.434Z,92.30
2023-02-06T19:47:02.062Z,92.40
2023-02-06T19:49:30.012Z,92.30
2023-02-06T19:51:58.403Z,92.40
2023-02-06T19:54:26.181Z,92.40
2023-02-06T19:56:53.992Z,92.40
2023-02-06T19:59:23.944Z,92.40
2023-02-06T20:01:52.727Z,92.30
2023-02-06T20:04:22.147Z,92.40
2023-02-06T20:06:51.368Z,92.50
2023-02-06T20:09:20.336Z,92.50
2023-02-06T20:11:49.284Z,92.40
2023-02-06T20:14:18.533Z,92.30
2023-02-06T20:16:48.072Z,92.30
2023-02-06T20:19:19.458Z,92.30
2023-02-06T20:21:49.411Z,92.20
2023-02-06T20:24:21.693Z,92.20
2023-02-06T20:26:50.748Z,92.20
2023-02-06T20:29:22.994Z,92.20
2023-02-06T20:31:51.205Z,92.40
2023-02-06T20:34:19.024Z,92.20
2023-02-06T20:36:47.614Z,92.10
2023-02-06T20:39:16.927Z,92.10
2023-02-06T20:41:46.501Z,92.10
2023-02-06T20:44:15.225Z,92.20
2023-02-06T20:46:43.792Z,92.30
2023-02-06T20:49:17.353Z,92.20
2023-02-06T20:51:44.899Z,92.20
2023-02-06T20:54:12.822Z,92.10
2023-02-06T20:56:40.906Z,92.10
2023-02-06T20:59:10.124Z,92.40
2023-02-06T21:01:37.734Z,92.40
2023-02-06T21:04:06.949Z,92.40
2023-02-06T21:06:35.279Z,92.60
2023-02-06T21:09:04.236Z,92.60
2023-02-06T21:11:34.112Z,93.00
2023-02-06T21:14:02.837Z,92.70
2023-02-06T21:16:31.021Z,92.60
2023-02-06T21:19:00.092Z,92.50
2023-02-06T21:21:28.750Z,92.50
2023-02-06T21:23:57.719Z,92.70
2023-02-06T21:26:26.059Z,92.70
2023-02-06T21:28:54.030Z,92.80
2023-02-06T21:31:23.816Z,92.70
2023-02-06T21:33:53.165Z,92.90
2023-02-06T21:36:21.343Z,92.70
2023-02-06T21:38:49.129Z,93.00
2023-02-06T21:41:18.805Z,93.00
2023-02-06T21:43:46.469Z,93.00
2023-02-06T21:46:14.271Z,92.90
2023-02-06T21:48:42.952Z,93.20
2023-02-06T21:51:17.344Z,93.00
2023-02-06T21:53:45.697Z,93.10
2023-02-06T21:56:17.990Z,93.30
2023-02-06T21:58:46.830Z,93.20
2023-02-06T22:01:15.381Z,93.20
2023-02-06T22:03:45.969Z,93.10
2023-02-06T22:06:13.989Z,93.40
2023-02-06T22:08:46.342Z,93.50
2023-02-06T22:11:19.261Z,93.40
2023-02-06T22:13:48.257Z,93.20
2023-02-06T22:16:18.604Z,93.00
2023-02-06T22:18:46.248Z,92.90
2023-02-06T22:21:15.138Z,93.30
2023-02-06T22:23:43.354Z,93.30
2023-02-06T22:26:11.736Z,93.10
2023-02-06T22:28:40.409Z,93.00
2023-02-06T22:31:11.006Z,93.20
2023-02-06T22:33:39.852Z,93.20
2023-02-06T22:36:08.811Z,93.30
2023-02-06T22:38:36.548Z,93.00
2023-02-06T22:41:05.489Z,93.20
2023-02-06T22:43:35.302Z,93.40
2023-02-06T22:46:03.787Z,93.50
2023-02-06T22:48:31.353Z,93.50
2023-02-06T22:51:04.584Z,93.20
2023-02-06T22:53:33.001Z,93.30
2023-02-06T22:56:20.974Z,93.30
2023-02-06T22:58:49.357Z,93.10
2023-02-06T23:01:18.114Z,93.10
2023-02-06T23:03:46.546Z,93.10
2023-02-06T23:06:15.913Z,93.20
2023-02-06T23:08:44.178Z,93.40
2023-02-06T23:11:12.507Z,93.30
2023-02-06T23:13:41.568Z,93.60
2023-02-06T23:16:10.499Z,93.40
2023-02-06T23:18:38.181Z,93.40
2023-02-06T23:21:07.779Z,93.40
2023-02-06T23:23:35.339Z,93.50
2023-02-06T23:26:03.811Z,93.70
2023-02-06T23:28:31.349Z,93.40
2023-02-06T23:30:59.765Z,93.60
2023-02-06T23:33:28.200Z,93.30
2023-02-06T23:35:56.577Z,93.40
2023-02-06T23:38:24.193Z,93.50
2023-02-06T23:40:51.722Z,93.60
2023-02-06T23:43:20.206Z,93.40
2023-02-06T23:45:47.731Z,93.40
2023-02-06T23:48:15.288Z,93.70
2023-02-06T23:50:42.883Z,93.70
2023-02-06T23:53:11.689Z,94.00
2023-02-06T23:55:40.614Z,93.90
2023-02-06T23:58:08.131Z,93.90
